Portada
METAR-TAF:

METAR-TAF

Aeroports :

Saga, Japó

latitud: 33-09N, longitud: 130-18E, altitud: 2 m

Observació

L'informe es va fer fa 16 minuts, a les 01:00 UTC
Vent 2 kt amb direcció variable
Temperatura 18°C
Humitat 64%
Pressió 1021 hPa
Visibilitat 10 km o més
Escasses núvols a una alçada de 3000 ft
Cel ennuvolat

METAR: RJFS 270100Z VRB02KT 9999 FEW030 BKN/// 18/11 Q1021

Hora: 10:16 (01:16 UTC)

Pronòstic

L'informe es va fer fa 2 hores i 11 minuts, a les 23:05 UTC
Pronòstic vàlid del 27 a les 00 UTC al 28 a les 06 UTC
Vent 5 kt del Sud-Oest
Visibilitat 10 km o més
Escasses núvols a una alçada de 3000 ft
Evolucionant progressivament
l' 27 a les 09 UTC al 27 a les 11 UTC
Vent 5 kt del Nord/Nord-Est
Evolucionant progressivament
l' 28 a les 00 UTC al 28 a les 03 UTC
Vent 5 kt del Oest

TAF: RJFS 262305Z 2700/2806 22005KT 9999 FEW030 BECMG 2709/2711 02005KT BECMG 2800/2803 28005KT

Observacions i pronòstics meteorològics de més de 4000 aeroports (METAR i TAF).

Les estacions disponibles són els punts grocs i vermells al mapa.

Posi el ratolí al punt desitjat per veure el nom de l'estació.

Feu clic per veure les observacions i els pronòstics meteorològics.

Per canviar el mapa: feu clic els botons verds amb una creu de color negre per apropar; al botó verd amb un guió per allunyar la imatge; o en les fletxes verdes per a mapes adjacents.


METAR-TAF: